createdAt,value
2023-05-21T00:01:42.721Z,4.38
2023-05-21T00:04:45.939Z,3.55
2023-05-21T00:07:48.760Z,3.55
2023-05-21T00:10:51.298Z,3.47
2023-05-21T00:13:54.175Z,3.23
2023-05-21T00:16:56.802Z,3.30
2023-05-21T00:20:00.378Z,3.67
2023-05-21T00:23:03.927Z,3.63
2023-05-21T00:26:06.696Z,3.75
2023-05-21T00:29:09.323Z,4.25
2023-05-21T00:32:12.547Z,2.72
2023-05-21T00:35:16.227Z,3.25
2023-05-21T00:38:19.146Z,3.03
2023-05-21T00:41:23.245Z,3.33
2023-05-21T00:44:27.308Z,3.50
2023-05-21T00:47:30.168Z,3.42
2023-05-21T00:50:33.345Z,3.17
2023-05-21T00:53:36.762Z,3.80
2023-05-21T00:56:39.439Z,2.90
2023-05-21T00:59:42.225Z,3.58
2023-05-21T01:02:46.375Z,3.33
2023-05-21T01:05:53.446Z,4.18
2023-05-21T01:08:57.119Z,3.25
2023-05-21T01:12:01.049Z,3.80
2023-05-21T01:15:05.342Z,2.90
2023-05-21T01:18:09.632Z,3.95
2023-05-21T01:21:12.606Z,3.35
2023-05-21T01:24:16.099Z,3.47
2023-05-21T01:27:18.975Z,3.65
2023-05-21T01:30:23.002Z,3.85
2023-05-21T01:33:39.349Z,3.75
2023-05-21T01:36:49.517Z,3.00
2023-05-21T01:39:57.118Z,4.18
2023-05-21T01:43:00.164Z,3.05
2023-05-21T01:46:06.022Z,3.10
2023-05-21T01:49:09.361Z,3.53
2023-05-21T01:52:13.387Z,3.42
2023-05-21T01:55:17.191Z,3.33
2023-05-21T01:58:21.390Z,3.28
2023-05-21T02:01:24.233Z,3.80
2023-05-21T02:04:27.589Z,3.22
2023-05-21T02:07:32.699Z,3.75
2023-05-21T02:10:37.272Z,3.95
2023-05-21T02:13:42.841Z,4.47
2023-05-21T02:16:46.065Z,3.70
2023-05-21T02:19:48.707Z,3.90
2023-05-21T02:22:51.585Z,3.65
2023-05-21T02:25:54.100Z,3.33
2023-05-21T02:28:57.030Z,3.67
2023-05-21T02:31:59.481Z,2.85
2023-05-21T02:35:04.453Z,4.13
2023-05-21T02:38:09.250Z,3.92
2023-05-21T02:41:13.898Z,3.22
2023-05-21T02:44:16.874Z,4.78
2023-05-21T02:47:20.566Z,3.30
2023-05-21T02:50:23.500Z,4.20
2023-05-21T02:53:33.281Z,4.38
2023-05-21T02:56:35.835Z,4.00
2023-05-21T02:59:38.937Z,4.43
2023-05-21T03:02:42.098Z,4.60
2023-05-21T03:05:46.141Z,4.38
2023-05-21T03:08:48.795Z,4.10
2023-05-21T03:11:51.709Z,4.28
2023-05-21T03:14:54.263Z,4.57
2023-05-21T03:17:57.333Z,4.07
2023-05-21T03:21:00.217Z,3.80
2023-05-21T03:24:03.901Z,4.32
2023-05-21T03:27:07.066Z,4.97
2023-05-21T03:30:10.884Z,4.00
2023-05-21T03:33:27.862Z,4.90
2023-05-21T03:36:31.528Z,4.15
2023-05-21T03:39:34.142Z,4.68
2023-05-21T03:42:37.320Z,4.63
2023-05-21T03:45:42.107Z,4.57
2023-05-21T03:49:06.463Z,4.67
2023-05-21T03:52:11.363Z,4.47
2023-05-21T03:55:14.162Z,4.70
2023-05-21T03:58:16.787Z,5.17
2023-05-21T04:01:19.917Z,4.68
2023-05-21T04:04:25.206Z,4.78
2023-05-21T04:07:30.238Z,4.18
2023-05-21T04:10:32.851Z,4.38
2023-05-21T04:13:35.906Z,4.82
2023-05-21T04:16:39.881Z,5.38
2023-05-21T04:19:43.043Z,4.97
2023-05-21T04:22:45.957Z,5.38
2023-05-21T04:25:51.205Z,5.07
2023-05-21T04:28:55.531Z,4.67
2023-05-21T04:31:58.394Z,5.05
2023-05-21T04:35:02.118Z,5.10
2023-05-21T04:38:05.875Z,4.50
2023-05-21T04:41:10.868Z,4.57
2023-05-21T04:44:17.693Z,4.38
2023-05-21T04:47:21.930Z,5.40
2023-05-21T04:50:24.959Z,5.13
2023-05-21T04:53:27.496Z,4.35
2023-05-21T04:56:30.674Z,4.38
2023-05-21T04:59:33.222Z,4.83
2023-05-21T05:02:36.304Z,4.93
2023-05-21T05:05:39.691Z,4.68
2023-05-21T05:08:43.205Z,5.28
2023-05-21T05:11:46.011Z,4.78
2023-05-21T05:14:49.200Z,4.63
2023-05-21T05:17:52.097Z,5.25
2023-05-21T05:20:55.095Z,4.23
2023-05-21T05:23:57.998Z,4.85
2023-05-21T05:27:03.834Z,5.47
2023-05-21T05:30:07.301Z,5.00
2023-05-21T05:33:10.297Z,4.95
2023-05-21T05:36:13.202Z,5.45
2023-05-21T05:39:16.307Z,5.22
2023-05-21T05:42:18.861Z,5.10
2023-05-21T05:45:21.787Z,4.30
2023-05-21T05:48:24.381Z,4.82
2023-05-21T05:51:27.273Z,4.40
2023-05-21T05:54:29.967Z,4.32
2023-05-21T05:57:32.934Z,3.80
2023-05-21T06:00:39.600Z,3.80
2023-05-21T06:03:42.664Z,4.47
2023-05-21T06:06:51.084Z,4.13
2023-05-21T06:09:55.110Z,3.90
2023-05-21T06:12:57.763Z,4.00
2023-05-21T06:16:00.859Z,3.80
2023-05-21T06:19:03.532Z,3.90
2023-05-21T06:22:06.753Z,3.50
2023-05-21T06:25:10.962Z,3.20
2023-05-21T06:28:14.962Z,2.90
2023-05-21T06:31:17.767Z,3.83
2023-05-21T06:34:21.062Z,3.55
2023-05-21T06:37:25.869Z,3.53
2023-05-21T06:40:29.431Z,4.07
2023-05-21T06:43:34.043Z,3.72
2023-05-21T06:47:03.318Z,3.58
2023-05-21T06:50:06.613Z,3.75
2023-05-21T06:53:09.864Z,3.33
2023-05-21T06:56:13.413Z,3.20
2023-05-21T06:59:20.000Z,3.67
2023-05-21T07:02:22.775Z,3.30
2023-05-21T07:05:25.517Z,2.90
2023-05-21T07:08:30.359Z,3.08
2023-05-21T07:11:34.770Z,3.13
2023-05-21T07:14:38.684Z,2.70
2023-05-21T07:17:41.677Z,3.17
2023-05-21T07:20:44.221Z,2.75
2023-05-21T07:23:50.250Z,2.43
2023-05-21T07:26:54.117Z,2.38
2023-05-21T07:29:57.505Z,2.40
2023-05-21T07:33:00.594Z,2.20
2023-05-21T07:36:05.604Z,1.95
2023-05-21T07:39:08.354Z,2.65
2023-05-21T07:42:12.917Z,2.35
2023-05-21T07:45:16.660Z,2.10
2023-05-21T07:48:20.911Z,2.55
2023-05-21T07:51:33.131Z,2.47
2023-05-21T07:54:36.280Z,2.70
2023-05-21T07:57:39.280Z,2.67
2023-05-21T08:00:48.303Z,2.45
2023-05-21T08:03:51.130Z,2.83
2023-05-21T08:06:54.350Z,2.25
2023-05-21T08:09:57.302Z,2.17
2023-05-21T08:13:00.353Z,2.30
2023-05-21T08:16:03.612Z,2.80
2023-05-21T08:19:06.510Z,2.40
2023-05-21T08:22:08.955Z,2.50
2023-05-21T08:25:14.244Z,2.80
2023-05-21T08:28:17.306Z,2.40
2023-05-21T08:31:20.181Z,2.25
2023-05-21T08:34:23.304Z,2.90
2023-05-21T08:37:37.041Z,2.47
2023-05-21T08:40:53.535Z,2.72
2023-05-21T08:44:00.149Z,2.70
2023-05-21T08:47:05.801Z,2.60
2023-05-21T08:50:11.239Z,2.40
2023-05-21T08:53:24.138Z,2.95
2023-05-21T08:56:32.840Z,2.95
2023-05-21T08:59:37.329Z,2.42
2023-05-21T09:02:44.721Z,2.33
2023-05-21T09:05:48.021Z,3.10
2023-05-21T09:09:00.170Z,3.10
2023-05-21T09:12:13.175Z,2.47
2023-05-21T09:15:16.671Z,2.60
2023-05-21T09:18:19.443Z,2.90
2023-05-21T09:21:34.401Z,3.03
2023-05-21T09:24:45.891Z,2.65
2023-05-21T09:27:49.030Z,2.85
2023-05-21T09:30:54.652Z,4.50
2023-05-21T09:33:57.449Z,3.40
2023-05-21T09:37:02.469Z,2.42
2023-05-21T09:40:14.049Z,2.95
2023-05-21T09:43:17.313Z,2.80
2023-05-21T09:46:25.846Z,2.53
2023-05-21T09:49:28.566Z,2.33
2023-05-21T09:52:37.026Z,2.72
2023-05-21T09:55:39.937Z,2.80
2023-05-21T09:58:43.608Z,2.65
2023-05-21T10:01:46.376Z,3.28
2023-05-21T10:04:51.309Z,2.70
2023-05-21T10:07:59.337Z,3.25
2023-05-21T10:11:03.639Z,2.95
2023-05-21T10:14:07.791Z,2.95
2023-05-21T10:17:12.827Z,2.83
2023-05-21T10:20:16.580Z,3.22
2023-05-21T10:23:20.654Z,3.50
2023-05-21T10:26:24.698Z,2.50
2023-05-21T10:29:28.483Z,3.10
2023-05-21T10:32:31.803Z,2.80
2023-05-21T10:35:35.179Z,2.50
2023-05-21T10:38:39.251Z,2.65
2023-05-21T10:42:05.986Z,2.50
2023-05-21T10:45:33.977Z,2.40
2023-05-21T10:49:06.845Z,2.92
2023-05-21T10:52:36.538Z,2.60
2023-05-21T10:55:52.890Z,2.90
2023-05-21T10:59:27.175Z,2.92
2023-05-21T11:02:30.136Z,2.88
2023-05-21T11:05:41.405Z,2.50
2023-05-21T11:08:48.138Z,3.20
2023-05-21T11:11:58.260Z,2.63
2023-05-21T11:15:00.855Z,3.25
2023-05-21T11:18:03.918Z,2.92
2023-05-21T11:21:17.959Z,3.10
2023-05-21T11:24:20.973Z,3.45
2023-05-21T11:27:40.051Z,3.83
2023-05-21T11:30:42.867Z,2.45
2023-05-21T11:33:48.113Z,3.20
2023-05-21T11:37:16.850Z,2.70
2023-05-21T11:40:27.296Z,2.90
2023-05-21T11:43:29.841Z,3.10
2023-05-21T11:46:34.519Z,2.70
2023-05-21T11:49:38.039Z,2.63
2023-05-21T11:52:44.680Z,3.10
2023-05-21T11:55:47.971Z,2.67
2023-05-21T11:58:51.070Z,3.07
2023-05-21T12:01:54.394Z,2.88
2023-05-21T12:05:00.822Z,2.90
2023-05-21T12:08:06.449Z,3.20
2023-05-21T12:11:09.286Z,2.60
2023-05-21T12:14:11.993Z,2.55
2023-05-21T12:17:20.158Z,3.00
2023-05-21T12:20:28.192Z,3.42
2023-05-21T12:23:31.798Z,2.60
2023-05-21T12:26:35.542Z,3.05
2023-05-21T12:29:40.320Z,2.60
2023-05-21T12:32:44.450Z,2.47
2023-05-21T12:35:50.545Z,3.13
2023-05-21T12:38:53.440Z,2.47
2023-05-21T12:41:56.089Z,2.97
2023-05-21T12:44:59.023Z,2.58
2023-05-21T12:48:02.604Z,2.83
2023-05-21T12:51:05.250Z,2.78
2023-05-21T12:54:14.257Z,3.45
2023-05-21T12:57:19.010Z,3.00
2023-05-21T13:00:25.153Z,2.00
2023-05-21T13:03:27.694Z,2.85
2023-05-21T13:06:31.857Z,2.70
2023-05-21T13:09:34.680Z,2.33
2023-05-21T13:12:37.539Z,2.47
2023-05-21T13:15:40.375Z,2.50
2023-05-21T13:18:43.159Z,2.55
2023-05-21T13:21:46.316Z,2.23
2023-05-21T13:24:49.617Z,2.50
2023-05-21T13:27:52.998Z,2.22
2023-05-21T13:30:56.555Z,2.17
2023-05-21T13:33:59.029Z,2.30
2023-05-21T13:37:01.778Z,2.80
2023-05-21T13:40:05.913Z,2.58
2023-05-21T13:43:08.953Z,3.10
2023-05-21T13:46:11.473Z,2.35
2023-05-21T13:49:14.393Z,2.58
2023-05-21T13:52:17.175Z,2.42
2023-05-21T13:55:20.280Z,2.40
2023-05-21T13:58:22.732Z,2.70
2023-05-21T14:01:26.048Z,2.15
2023-05-21T14:04:28.626Z,2.07
2023-05-21T14:07:31.706Z,2.55
2023-05-21T14:10:34.377Z,2.63
2023-05-21T14:13:37.166Z,2.80
2023-05-21T14:16:40.150Z,2.13
2023-05-21T14:19:42.780Z,2.25
2023-05-21T14:22:45.779Z,2.10
2023-05-21T14:25:48.826Z,2.17
2023-05-21T14:28:51.285Z,2.47
2023-05-21T14:31:54.152Z,2.72
2023-05-21T14:34:56.890Z,2.35
2023-05-21T14:37:59.606Z,2.20
2023-05-21T14:41:02.249Z,2.60
2023-05-21T14:44:05.100Z,2.25
2023-05-21T14:47:07.753Z,2.30
2023-05-21T14:50:10.759Z,2.30
2023-05-21T14:53:13.503Z,1.83
2023-05-21T14:56:16.516Z,2.15
2023-05-21T14:59:18.958Z,2.13
2023-05-21T15:02:22.240Z,1.70
2023-05-21T15:05:29.574Z,2.35
2023-05-21T15:08:32.198Z,2.50
2023-05-21T15:11:36.004Z,1.92
2023-05-21T15:14:38.594Z,1.85
2023-05-21T15:17:41.193Z,2.00
2023-05-21T15:20:44.014Z,1.70
2023-05-21T15:23:46.972Z,2.00
2023-05-21T15:26:49.931Z,2.03
2023-05-21T15:29:53.098Z,1.67
2023-05-21T15:32:55.849Z,1.88
2023-05-21T15:35:58.317Z,1.83
2023-05-21T15:39:03.912Z,1.80
2023-05-21T15:42:06.562Z,1.55
2023-05-21T15:45:09.553Z,1.70
2023-05-21T15:48:13.023Z,2.00
2023-05-21T15:51:15.840Z,1.80
2023-05-21T15:54:18.401Z,1.70
2023-05-21T15:57:21.298Z,1.77
2023-05-21T16:00:23.735Z,1.77
2023-05-21T16:03:26.657Z,2.13
2023-05-21T16:06:29.902Z,1.73
2023-05-21T16:09:32.728Z,1.57
2023-05-21T16:12:35.402Z,1.85
2023-05-21T16:15:38.366Z,2.15
2023-05-21T16:18:41.167Z,2.00
2023-05-21T16:21:43.768Z,2.20
2023-05-21T16:24:48.084Z,2.22
2023-05-21T16:27:50.953Z,2.00
2023-05-21T16:30:53.415Z,2.33
2023-05-21T16:33:56.212Z,2.00
2023-05-21T16:36:58.742Z,1.67
2023-05-21T16:40:01.667Z,1.90
2023-05-21T16:43:04.323Z,1.30
2023-05-21T16:46:06.956Z,1.65
2023-05-21T16:49:09.833Z,1.80
2023-05-21T16:52:12.506Z,1.67
2023-05-21T16:55:15.243Z,1.80
2023-05-21T16:58:19.358Z,1.83
2023-05-21T17:01:22.301Z,1.70
2023-05-21T17:04:25.326Z,1.58
2023-05-21T17:07:27.801Z,1.85
2023-05-21T17:10:33.101Z,1.67
2023-05-21T17:13:35.743Z,1.98
2023-05-21T17:16:38.668Z,1.65
2023-05-21T17:19:42.090Z,1.90
2023-05-21T17:22:46.562Z,1.73
2023-05-21T17:25:49.648Z,1.58
2023-05-21T17:28:52.494Z,1.70
2023-05-21T17:31:55.128Z,1.73
2023-05-21T17:34:58.060Z,1.55
2023-05-21T17:38:00.593Z,2.05
2023-05-21T17:41:03.541Z,1.70
2023-05-21T17:44:06.264Z,1.73
2023-05-21T17:47:09.013Z,2.40
2023-05-21T17:50:11.754Z,2.50
2023-05-21T17:53:15.269Z,2.90
2023-05-21T17:56:17.931Z,2.88
2023-05-21T17:59:21.845Z,2.22
2023-05-21T18:02:24.369Z,2.40
2023-05-21T18:05:27.201Z,1.70
2023-05-21T18:08:29.742Z,1.60
2023-05-21T18:11:32.585Z,1.53
2023-05-21T18:14:35.412Z,1.70
2023-05-21T18:17:38.137Z,1.10
2023-05-21T18:20:41.006Z,1.37
2023-05-21T18:23:43.669Z,1.50
2023-05-21T18:26:46.852Z,1.92
2023-05-21T18:29:51.822Z,1.48
2023-05-21T18:32:54.490Z,1.40
2023-05-21T18:35:57.833Z,1.65
2023-05-21T18:39:00.309Z,1.55
2023-05-21T18:42:12.688Z,1.47
2023-05-21T18:45:16.305Z,1.52
2023-05-21T18:48:19.141Z,1.48
2023-05-21T18:51:21.687Z,1.53
2023-05-21T18:54:24.318Z,1.30
2023-05-21T18:57:26.947Z,1.90
2023-05-21T19:00:29.762Z,1.48
2023-05-21T19:03:32.326Z,1.50
2023-05-21T19:06:35.118Z,1.60
2023-05-21T19:09:37.765Z,1.50
2023-05-21T19:12:42.094Z,1.17
2023-05-21T19:15:47.058Z,1.70
2023-05-21T19:18:49.912Z,1.80
2023-05-21T19:21:53.012Z,1.17
2023-05-21T19:24:55.832Z,1.20
2023-05-21T19:27:58.715Z,1.75
2023-05-21T19:31:01.836Z,1.60
2023-05-21T19:34:10.337Z,1.45
2023-05-21T19:37:13.220Z,1.38
2023-05-21T19:40:17.745Z,1.60
2023-05-21T19:43:21.613Z,1.43
2023-05-21T19:46:24.441Z,1.35
2023-05-21T19:49:27.343Z,1.20
2023-05-21T19:52:30.228Z,1.20
2023-05-21T19:55:35.654Z,1.70
2023-05-21T19:58:38.555Z,1.20
2023-05-21T20:01:43.615Z,1.63
2023-05-21T20:04:46.132Z,1.00
2023-05-21T20:07:49.111Z,1.08
2023-05-21T20:10:52.162Z,1.23
2023-05-21T20:13:55.082Z,1.00
2023-05-21T20:16:58.607Z,1.42
2023-05-21T20:20:03.864Z,1.30
2023-05-21T20:23:06.581Z,1.47
2023-05-21T20:26:09.261Z,1.20
2023-05-21T20:29:12.152Z,1.38
2023-05-21T20:32:14.915Z,1.48
2023-05-21T20:35:17.340Z,2.00
2023-05-21T20:38:21.192Z,1.35
2023-05-21T20:41:25.312Z,1.20
2023-05-21T20:44:29.129Z,1.00
2023-05-21T20:47:31.994Z,1.10
2023-05-21T20:50:35.224Z,1.65
2023-05-21T20:53:37.921Z,1.37
2023-05-21T20:56:42.457Z,1.08
2023-05-21T20:59:45.635Z,1.35
2023-05-21T21:02:48.710Z,1.85
2023-05-21T21:05:52.893Z,1.10
2023-05-21T21:08:56.178Z,1.90
2023-05-21T21:12:06.239Z,1.13
2023-05-21T21:15:14.506Z,1.37
2023-05-21T21:18:17.632Z,1.33
2023-05-21T21:21:20.647Z,1.25
2023-05-21T21:24:23.507Z,1.33
2023-05-21T21:27:26.346Z,1.25
2023-05-21T21:30:29.174Z,1.45
2023-05-21T21:33:32.563Z,1.48
2023-05-21T21:36:35.120Z,1.33
2023-05-21T21:39:37.804Z,1.40
2023-05-21T21:42:42.236Z,1.08
2023-05-21T21:45:45.013Z,1.50
2023-05-21T21:48:47.980Z,1.48
2023-05-21T21:51:51.548Z,1.25
2023-05-21T21:54:55.590Z,1.50
2023-05-21T21:57:58.245Z,1.63
2023-05-21T22:01:01.243Z,1.45
2023-05-21T22:04:04.157Z,1.60
2023-05-21T22:07:06.612Z,1.35
2023-05-21T22:10:09.826Z,1.52
2023-05-21T22:13:12.858Z,1.23
2023-05-21T22:16:15.500Z,1.80
2023-05-21T22:19:20.577Z,1.60
2023-05-21T22:22:23.435Z,1.38
2023-05-21T22:25:26.188Z,1.97
2023-05-21T22:28:28.799Z,1.30
2023-05-21T22:31:31.959Z,1.42
2023-05-21T22:34:34.707Z,1.40
2023-05-21T22:37:37.486Z,1.40
2023-05-21T22:40:40.267Z,1.60
2023-05-21T22:43:42.888Z,1.40
2023-05-21T22:46:47.936Z,1.20
2023-05-21T22:49:53.472Z,1.55
2023-05-21T22:52:56.418Z,1.20
2023-05-21T22:55:59.007Z,1.30
2023-05-21T22:59:01.586Z,1.27
2023-05-21T23:02:04.391Z,1.13
2023-05-21T23:05:07.479Z,1.70
2023-05-21T23:08:09.963Z,1.52
2023-05-21T23:11:12.844Z,1.10
2023-05-21T23:14:15.281Z,2.80
2023-05-21T23:17:18.005Z,1.60
2023-05-21T23:20:21.712Z,1.90
2023-05-21T23:23:24.498Z,1.40
2023-05-21T23:26:27.110Z,1.97
2023-05-21T23:29:30.477Z,1.77
2023-05-21T23:32:33.353Z,1.45
2023-05-21T23:35:36.303Z,1.52
2023-05-21T23:38:38.852Z,1.35
2023-05-21T23:41:41.729Z,1.70
2023-05-21T23:44:44.490Z,1.58
2023-05-21T23:47:47.297Z,1.90
2023-05-21T23:50:50.039Z,1.58
2023-05-21T23:53:52.737Z,1.45
2023-05-21T23:56:55.303Z,1.77
2023-05-21T23:59:57.963Z,2.08
